Time;durP1;ratioP1;P1;durP2;ratioP2;P2;SDS_P1;SDS_P2;PMS_P1;PMS_P2;Temp;Humidity;BMP_temperature;BMP_pressure;BME280_temperature;BME280_humidity;BME280_pressure;Samples;Min_cycle;Max_cycle;Signal;HPM_P1;HPM_P2
2022/08/05 00:01:16;;;;;;;8.65;3.55;;;;;;;;;;5035151;28;20460;-63
2022/08/05 00:03:42;;;;;;;5.78;3.72;;;;;;;;;;5015841;28;20458;-62
2022/08/05 00:06:09;;;;;;;9.20;4.32;;;;;;;;;;5038275;28;20051;-62
2022/08/05 00:08:35;;;;;;;7.63;3.80;;;;;;;;;;5037000;28;20033;-63
2022/08/05 00:11:03;;;;;;;7.25;3.75;;;;;;;;;;5053421;28;20035;-63
2022/08/05 00:13:31;;;;;;;7.15;3.90;;;;;;;;;;5038268;28;20424;-63
2022/08/05 00:15:56;;;;;;;8.00;3.85;;;;;;;;;;5044561;28;20044;-64
2022/08/05 00:18:21;;;;;;;7.75;3.88;;;;;;;;;;5041251;28;20116;-63
2022/08/05 00:20:47;;;;;;;6.05;3.83;;;;;;;;;;5050804;28;20496;-63
2022/08/05 00:23:12;;;;;;;7.35;4.20;;;;;;;;;;5046636;28;20032;-63
2022/08/05 00:25:38;;;;;;;7.20;4.07;;;;;;;;;;5050909;28;20045;-63
2022/08/05 00:28:03;;;;;;;5.40;3.90;;;;;;;;;;5029921;28;20060;-63
2022/08/05 00:30:29;;;;;;;9.18;4.00;;;;;;;;;;5035362;28;20045;-63
2022/08/05 00:32:54;;;;;;;7.47;3.70;;;;;;;;;;5015869;28;20072;-63
2022/08/05 00:35:19;;;;;;;6.95;3.90;;;;;;;;;;5020627;28;20037;-63
2022/08/05 00:37:45;;;;;;;9.10;4.10;;;;;;;;;;5034081;28;20053;-63
2022/08/05 00:40:11;;;;;;;10.23;3.85;;;;;;;;;;5034193;28;20029;-63
2022/08/05 00:42:38;;;;;;;7.93;4.03;;;;;;;;;;5049559;28;20363;-64
2022/08/05 00:45:06;;;;;;;8.02;3.88;;;;;;;;;;5049422;28;20029;-64
2022/08/05 00:47:32;;;;;;;7.72;4.03;;;;;;;;;;5034474;28;20073;-64
2022/08/05 00:49:57;;;;;;;7.38;4.00;;;;;;;;;;5041631;28;20025;-64
2022/08/05 00:52:23;;;;;;;6.78;4.07;;;;;;;;;;5044216;28;20425;-63
2022/08/05 00:54:48;;;;;;;7.22;4.18;;;;;;;;;;5049203;28;20033;-63
2022/08/05 00:57:14;;;;;;;7.50;3.83;;;;;;;;;;5037209;28;20120;-63
2022/08/05 00:59:40;;;;;;;10.80;4.20;;;;;;;;;;5035685;28;20037;-64
2022/08/05 01:02:05;;;;;;;9.80;4.28;;;;;;;;;;5034320;28;20041;-63
2022/08/05 01:04:31;;;;;;;8.43;4.13;;;;;;;;;;5015173;28;20087;-62
2022/08/05 01:06:56;;;;;;;5.85;4.22;;;;;;;;;;5033232;28;20079;-63
2022/08/05 01:09:22;;;;;;;7.30;4.05;;;;;;;;;;5032657;28;20029;-63
2022/08/05 01:11:54;;;;;;;6.18;4.28;;;;;;;;;;5033196;28;20033;-62
2022/08/05 01:14:46;;;;;;;6.00;3.85;;;;;;;;;;5033732;28;20079;-63
2022/08/05 01:17:21;;;;;;;10.75;3.70;;;;;;;;;;5032403;28;20455;-64
2022/08/05 01:19:51;;;;;;;6.63;3.50;;;;;;;;;;5041249;28;20049;-63
2022/08/05 01:22:35;;;;;;;6.72;3.55;;;;;;;;;;5045575;28;20474;-63
2022/08/05 01:25:15;;;;;;;5.93;3.28;;;;;;;;;;5038331;28;20041;-64
2022/08/05 01:28:02;;;;;;;7.00;3.85;;;;;;;;;;5032261;28;20489;-64
2022/08/05 01:30:29;;;;;;;8.57;3.45;;;;;;;;;;5032992;28;20033;-64
2022/08/05 01:32:57;;;;;;;6.45;3.53;;;;;;;;;;5031912;28;20112;-63
2022/08/05 01:35:27;;;;;;;5.75;3.20;;;;;;;;;;5034411;28;20505;-64
2022/08/05 01:37:55;;;;;;;4.53;3.10;;;;;;;;;;5032034;28;20041;-63
2022/08/05 01:40:25;;;;;;;7.03;3.60;;;;;;;;;;5032184;28;20048;-64
2022/08/05 01:42:51;;;;;;;7.18;3.40;;;;;;;;;;5043593;28;20025;-64
2022/08/05 01:45:19;;;;;;;4.80;3.45;;;;;;;;;;5038657;28;20407;-64
2022/08/05 01:47:47;;;;;;;6.43;3.60;;;;;;;;;;5035625;28;20029;-65
2022/08/05 01:50:31;;;;;;;5.95;3.85;;;;;;;;;;5029330;28;20037;-63
2022/08/05 01:53:01;;;;;;;8.70;3.80;;;;;;;;;;5036071;28;20036;-63
2022/08/05 01:55:29;;;;;;;7.82;3.85;;;;;;;;;;5042275;28;20029;-64
2022/08/05 01:57:56;;;;;;;6.43;3.90;;;;;;;;;;5046465;28;20046;-63
2022/08/05 02:00:22;;;;;;;8.88;4.25;;;;;;;;;;5036411;28;20097;-65
2022/08/05 02:02:56;;;;;;;7.30;4.15;;;;;;;;;;5047308;28;20398;-63
2022/08/05 02:05:30;;;;;;;9.63;4.00;;;;;;;;;;5033972;28;20624;-64
2022/08/05 02:07:57;;;;;;;10.02;4.45;;;;;;;;;;5028327;28;20036;-65
2022/08/05 02:10:25;;;;;;;8.13;4.22;;;;;;;;;;5041722;28;20048;-64
2022/08/05 02:13:00;;;;;;;7.78;4.68;;;;;;;;;;5046340;28;20044;-64
2022/08/05 02:15:50;;;;;;;6.78;3.88;;;;;;;;;;5046376;28;20037;-65
2022/08/05 02:18:32;;;;;;;6.28;4.10;;;;;;;;;;5038905;28;20051;-64
2022/08/05 02:21:20;;;;;;;7.97;4.35;;;;;;;;;;5048820;28;20116;-64
2022/08/05 02:23:52;;;;;;;9.55;4.32;;;;;;;;;;5048627;28;20140;-63
2022/08/05 02:26:26;;;;;;;6.35;4.35;;;;;;;;;;5030142;28;20044;-64
2022/08/05 02:28:53;;;;;;;6.82;4.20;;;;;;;;;;5032624;28;20037;-63
2022/08/05 02:31:26;;;;;;;10.77;4.88;;;;;;;;;;5013296;28;20030;-64
2022/08/05 02:34:02;;;;;;;7.80;4.43;;;;;;;;;;5030874;28;20597;-63
2022/08/05 02:36:29;;;;;;;9.52;4.45;;;;;;;;;;5038315;28;20033;-64
2022/08/05 02:38:55;;;;;;;8.57;4.30;;;;;;;;;;5039758;28;20052;-64
2022/08/05 02:41:24;;;;;;;8.77;4.82;;;;;;;;;;5040996;28;20043;-64
2022/08/05 02:43:51;;;;;;;8.63;4.57;;;;;;;;;;5036952;28;20037;-64
2022/08/05 02:46:19;;;;;;;9.02;4.72;;;;;;;;;;5029685;28;20095;-64
2022/08/05 02:48:46;;;;;;;10.45;4.68;;;;;;;;;;5024289;28;20120;-63
2022/08/05 02:51:14;;;;;;;9.05;4.97;;;;;;;;;;5035878;28;20045;-62
2022/08/05 02:53:40;;;;;;;8.43;5.10;;;;;;;;;;5051066;28;20044;-61
2022/08/05 02:56:08;;;;;;;9.35;5.30;;;;;;;;;;5039336;28;20033;-64
2022/08/05 02:58:35;;;;;;;10.77;5.45;;;;;;;;;;5039087;28;20044;-62
2022/08/05 03:01:01;;;;;;;10.18;5.97;;;;;;;;;;5030401;28;20439;-62
2022/08/05 03:03:28;;;;;;;11.02;6.32;;;;;;;;;;5030061;28;20100;-63
2022/08/05 03:05:54;;;;;;;10.75;6.95;;;;;;;;;;5045278;28;20041;-65
2022/08/05 03:08:21;;;;;;;12.68;7.90;;;;;;;;;;5034778;28;20127;-65
2022/08/05 03:10:47;;;;;;;15.07;8.50;;;;;;;;;;5032855;28;20037;-66
2022/08/05 03:13:14;;;;;;;14.52;8.00;;;;;;;;;;5029519;28;20030;-67
2022/08/05 03:15:44;;;;;;;14.63;8.48;;;;;;;;;;5030395;28;20037;-67
2022/08/05 03:18:09;;;;;;;18.27;9.73;;;;;;;;;;5031557;28;20029;-66
2022/08/05 03:20:35;;;;;;;17.35;9.40;;;;;;;;;;5036355;28;20096;-63
2022/08/05 03:23:01;;;;;;;16.83;9.82;;;;;;;;;;5040771;28;20037;-63
2022/08/05 03:25:27;;;;;;;21.27;10.43;;;;;;;;;;5033059;28;20742;-64
2022/08/05 03:27:54;;;;;;;16.98;10.50;;;;;;;;;;5031726;28;20032;-64
2022/08/05 03:30:21;;;;;;;19.92;11.25;;;;;;;;;;5046170;28;20037;-64
2022/08/05 03:32:47;;;;;;;25.83;11.52;;;;;;;;;;5055177;28;20060;-64
2022/08/05 03:35:13;;;;;;;24.13;12.02;;;;;;;;;;5034912;28;20025;-64
2022/08/05 03:37:39;;;;;;;24.65;12.20;;;;;;;;;;5044346;28;20146;-64
2022/08/05 03:40:07;;;;;;;20.85;12.05;;;;;;;;;;5037562;28;20033;-63
2022/08/05 03:42:33;;;;;;;25.40;12.00;;;;;;;;;;5035827;28;20551;-64
2022/08/05 03:44:59;;;;;;;23.25;12.20;;;;;;;;;;5040904;28;20029;-64
2022/08/05 03:47:24;;;;;;;21.42;11.90;;;;;;;;;;5044580;28;20029;-64
2022/08/05 03:49:50;;;;;;;19.92;11.32;;;;;;;;;;5048080;28;20083;-64
2022/08/05 03:52:23;;;;;;;21.67;11.95;;;;;;;;;;5051385;28;20450;-64
2022/08/05 03:54:57;;;;;;;24.13;11.68;;;;;;;;;;5054117;28;20033;-64
2022/08/05 03:57:28;;;;;;;22.90;12.02;;;;;;;;;;5052999;28;20337;-65
2022/08/05 03:59:59;;;;;;;;;;;;;;;;;;5053825;28;20531;-65
2022/08/05 04:02:27;;;;;;;24.73;12.30;;;;;;;;;;5041790;28;20309;-65
2022/08/05 04:04:53;;;;;;;25.63;13.52;;;;;;;;;;5053896;28;20029;-64
2022/08/05 04:07:22;;;;;;;25.92;13.35;;;;;;;;;;5053939;28;20091;-64
2022/08/05 04:09:48;;;;;;;24.40;13.02;;;;;;;;;;5052536;28;20424;-64
2022/08/05 04:12:14;;;;;;;26.60;13.57;;;;;;;;;;5051574;28;20044;-64
2022/08/05 04:14:41;;;;;;;24.63;13.70;;;;;;;;;;5045663;28;20075;-64
2022/08/05 04:17:08;;;;;;;28.70;14.40;;;;;;;;;;5054714;28;20099;-64
2022/08/05 04:19:44;;;;;;;28.83;14.88;;;;;;;;;;5049140;28;20040;-65
2022/08/05 04:22:11;;;;;;;31.63;15.63;;;;;;;;;;5049432;28;20036;-67
2022/08/05 04:24:40;;;;;;;29.42;14.10;;;;;;;;;;5039196;28;20045;-65
2022/08/05 04:27:06;;;;;;;23.67;14.48;;;;;;;;;;5037660;28;20029;-65
2022/08/05 04:29:31;;;;;;;29.05;15.43;;;;;;;;;;5052595;28;20033;-65
2022/08/05 04:31:57;;;;;;;28.48;15.52;;;;;;;;;;5053389;28;20033;-65
2022/08/05 04:34:22;;;;;;;28.25;15.52;;;;;;;;;;5041938;28;20060;-66
2022/08/05 04:36:48;;;;;;;31.83;15.52;;;;;;;;;;5033907;28;20064;-66
2022/08/05 04:39:13;;;;;;;27.23;14.93;;;;;;;;;;5032830;28;20493;-66
2022/08/05 04:41:38;;;;;;;26.60;14.70;;;;;;;;;;5046840;28;20040;-66
2022/08/05 04:44:04;;;;;;;26.10;14.32;;;;;;;;;;5034914;28;20039;-66
2022/08/05 04:46:30;;;;;;;29.50;15.20;;;;;;;;;;5048022;28;20662;-65
2022/08/05 04:48:56;;;;;;;29.33;17.13;;;;;;;;;;5051418;28;20033;-65
2022/08/05 04:51:21;;;;;;;40.78;20.90;;;;;;;;;;5050819;28;20037;-65
2022/08/05 04:53:46;;;;;;;45.45;21.98;;;;;;;;;;5050574;28;20063;-66
2022/08/05 04:56:13;;;;;;;51.67;25.15;;;;;;;;;;5037294;28;20045;-65
2022/08/05 04:58:39;;;;;;;51.40;24.25;;;;;;;;;;5051818;28;20509;-65
2022/08/05 05:01:04;;;;;;;45.85;22.60;;;;;;;;;;5047610;28;20025;-65
2022/08/05 05:03:30;;;;;;;45.90;22.83;;;;;;;;;;5036055;28;20596;-65
2022/08/05 05:05:55;;;;;;;52.33;24.30;;;;;;;;;;5033726;28;20533;-65
2022/08/05 05:08:21;;;;;;;51.08;27.90;;;;;;;;;;5033223;28;20037;-64
2022/08/05 05:10:46;;;;;;;57.08;27.73;;;;;;;;;;5033008;28;20037;-65
2022/08/05 05:13:14;;;;;;;54.70;26.63;;;;;;;;;;5032989;28;20044;-65
2022/08/05 05:15:41;;;;;;;48.78;23.08;;;;;;;;;;5035085;28;20040;-65
2022/08/05 05:18:07;;;;;;;39.33;21.02;;;;;;;;;;5040932;28;20029;-68
2022/08/05 05:20:33;;;;;;;37.83;19.55;;;;;;;;;;5019598;28;20645;-68
2022/08/05 05:23:00;;;;;;;37.90;19.15;;;;;;;;;;5038010;28;20100;-65
2022/08/05 05:25:26;;;;;;;32.85;17.92;;;;;;;;;;5048249;28;20433;-66
2022/08/05 05:27:52;;;;;;;30.30;16.27;;;;;;;;;;5052132;28;20040;-67
2022/08/05 05:30:18;;;;;;;31.73;16.13;;;;;;;;;;5051129;28;20033;-66
2022/08/05 05:32:44;;;;;;;31.20;16.00;;;;;;;;;;5049591;28;20037;-66
2022/08/05 05:35:09;;;;;;;26.30;16.15;;;;;;;;;;5051112;28;20393;-67
2022/08/05 05:37:56;;;;;;;31.88;16.48;;;;;;;;;;5047306;28;20032;-66
2022/08/05 05:40:23;;;;;;;29.70;16.85;;;;;;;;;;5038034;28;20033;-69
2022/08/05 05:42:49;;;;;;;30.08;16.80;;;;;;;;;;5051832;28;20098;-69
2022/08/05 05:45:15;;;;;;;32.25;17.35;;;;;;;;;;5052188;28;20075;-66
2022/08/05 05:47:41;;;;;;;31.02;16.80;;;;;;;;;;5045461;28;20029;-67
2022/08/05 05:50:08;;;;;;;29.42;16.52;;;;;;;;;;5032896;28;20041;-69
2022/08/05 05:52:33;;;;;;;34.15;16.95;;;;;;;;;;5037874;28;20573;-67
2022/08/05 05:55:00;;;;;;;30.75;16.15;;;;;;;;;;5050426;28;20161;-67
2022/08/05 05:57:25;;;;;;;26.60;16.35;;;;;;;;;;5037776;28;20075;-66
2022/08/05 05:59:51;;;;;;;25.13;14.45;;;;;;;;;;5037303;28;20073;-67
2022/08/05 06:02:17;;;;;;;27.63;16.73;;;;;;;;;;5035114;28;20037;-66
2022/08/05 06:04:42;;;;;;;28.98;15.15;;;;;;;;;;5051476;28;20116;-67
2022/08/05 06:07:08;;;;;;;25.65;15.40;;;;;;;;;;5043590;28;20033;-68
2022/08/05 06:09:33;;;;;;;29.60;16.00;;;;;;;;;;5051530;28;20600;-69
2022/08/05 06:11:58;;;;;;;31.42;16.38;;;;;;;;;;5049743;28;20029;-67
2022/08/05 06:14:24;;;;;;;25.90;15.35;;;;;;;;;;5034668;28;20413;-68
2022/08/05 06:16:49;;;;;;;28.88;15.35;;;;;;;;;;5050138;28;20029;-66
2022/08/05 06:19:14;;;;;;;29.05;15.35;;;;;;;;;;5051656;28;20063;-65
2022/08/05 06:21:40;;;;;;;27.95;15.50;;;;;;;;;;5047411;28;20031;-68
2022/08/05 06:24:06;;;;;;;29.08;15.32;;;;;;;;;;5052191;28;20119;-68
2022/08/05 06:26:31;;;;;;;28.10;15.13;;;;;;;;;;5049431;28;20032;-68
2022/08/05 06:28:57;;;;;;;28.27;15.35;;;;;;;;;;5051586;28;20035;-68
2022/08/05 06:31:22;;;;;;;27.40;14.23;;;;;;;;;;5050308;28;20033;-68
2022/08/05 06:33:48;;;;;;;29.52;15.15;;;;;;;;;;5051993;28;20091;-68
2022/08/05 06:36:13;;;;;;;26.45;13.95;;;;;;;;;;5044107;28;20459;-68
2022/08/05 06:38:39;;;;;;;25.15;13.93;;;;;;;;;;5031592;28;20390;-69
2022/08/05 06:41:05;;;;;;;27.50;14.82;;;;;;;;;;5034552;28;20412;-66
2022/08/05 06:43:30;;;;;;;23.98;14.15;;;;;;;;;;5051268;28;20470;-66
2022/08/05 06:45:55;;;;;;;27.02;13.93;;;;;;;;;;5049787;28;20036;-67
2022/08/05 06:48:21;;;;;;;27.85;14.93;;;;;;;;;;5049321;28;20565;-67
2022/08/05 06:50:46;;;;;;;26.08;15.57;;;;;;;;;;5047138;28;20058;-66
2022/08/05 06:53:13;;;;;;;26.30;14.63;;;;;;;;;;5039752;28;20381;-66
2022/08/05 06:55:40;;;;;;;23.42;13.77;;;;;;;;;;5045003;28;20090;-69
2022/08/05 06:58:05;;;;;;;25.05;13.45;;;;;;;;;;5041737;28;20049;-68
2022/08/05 07:00:32;;;;;;;24.67;14.18;;;;;;;;;;5050714;28;20025;-66
2022/08/05 07:02:58;;;;;;;25.15;13.50;;;;;;;;;;5050189;28;20041;-70
2022/08/05 07:05:24;;;;;;;23.83;14.45;;;;;;;;;;5050827;28;20394;-67
2022/08/05 07:07:49;;;;;;;23.00;14.10;;;;;;;;;;5050085;28;20033;-69
2022/08/05 07:10:15;;;;;;;22.05;14.20;;;;;;;;;;5050060;28;20127;-63
2022/08/05 07:18:08;;;;;;;17.23;11.00;;;;;;;;;;5051826;28;20095;-67
2022/08/05 07:20:34;;;;;;;15.95;9.93;;;;;;;;;;5048150;28;20287;-68
2022/08/05 07:22:59;;;;;;;16.35;9.18;;;;;;;;;;5048972;28;20432;-68
2022/08/05 07:25:25;;;;;;;14.55;9.40;;;;;;;;;;5037351;28;20454;-68
2022/08/05 07:27:52;;;;;;;12.73;8.70;;;;;;;;;;5051724;28;20449;-62
2022/08/05 07:30:18;;;;;;;15.00;9.20;;;;;;;;;;5040660;28;20026;-65
2022/08/05 07:32:43;;;;;;;15.23;8.70;;;;;;;;;;5031360;28;20116;-66
2022/08/05 07:35:10;;;;;;;15.07;8.55;;;;;;;;;;5041447;28;20025;-67
2022/08/05 07:37:36;;;;;;;13.40;8.68;;;;;;;;;;5040141;28;20090;-66
2022/08/05 07:40:03;;;;;;;17.73;9.32;;;;;;;;;;5048187;28;20037;-66
2022/08/05 07:42:28;;;;;;;11.77;8.35;;;;;;;;;;5033019;28;20041;-67
2022/08/05 07:44:54;;;;;;;13.93;8.35;;;;;;;;;;5036615;28;20029;-68
2022/08/05 07:47:20;;;;;;;13.13;8.57;;;;;;;;;;5050370;28;20036;-66
2022/08/05 07:49:45;;;;;;;12.98;8.07;;;;;;;;;;5045461;28;20037;-63
2022/08/05 07:52:11;;;;;;;13.43;8.10;;;;;;;;;;5041532;28;20393;-65
2022/08/05 07:54:36;;;;;;;15.05;7.90;;;;;;;;;;5037626;28;20024;-67
2022/08/05 07:57:03;;;;;;;14.02;7.70;;;;;;;;;;5050850;28;20469;-68
2022/08/05 07:59:28;;;;;;;13.93;7.65;;;;;;;;;;5049209;28;20037;-68
2022/08/05 08:01:54;;;;;;;14.30;7.40;;;;;;;;;;5049533;28;20048;-66
2022/08/05 08:04:19;;;;;;;13.05;7.53;;;;;;;;;;5049035;28;20033;-67
2022/08/05 08:06:45;;;;;;;10.02;6.97;;;;;;;;;;5041434;28;20142;-66
2022/08/05 08:09:10;;;;;;;12.10;6.93;;;;;;;;;;5049553;28;20111;-68
2022/08/05 08:11:36;;;;;;;13.02;7.30;;;;;;;;;;5049893;28;20885;-68
2022/08/05 08:14:01;;;;;;;13.45;7.22;;;;;;;;;;5037657;28;20033;-64
2022/08/05 08:16:27;;;;;;;12.98;7.10;;;;;;;;;;5049813;28;20029;-63
2022/08/05 08:18:52;;;;;;;13.10;6.53;;;;;;;;;;5053127;28;20120;-66
2022/08/05 08:21:17;;;;;;;10.65;7.28;;;;;;;;;;5036311;28;20033;-64
2022/08/05 08:23:43;;;;;;;13.63;6.97;;;;;;;;;;5051070;28;20119;-65
2022/08/05 08:26:08;;;;;;;12.13;7.45;;;;;;;;;;5052134;28;20055;-64
2022/08/05 08:28:34;;;;;;;16.27;6.82;;;;;;;;;;5049290;28;20483;-64
2022/08/05 08:30:59;;;;;;;14.55;6.80;;;;;;;;;;5053623;28;20043;-63
2022/08/05 08:33:24;;;;;;;12.13;6.85;;;;;;;;;;5041453;28;20048;-64
2022/08/05 08:35:50;;;;;;;11.98;6.45;;;;;;;;;;5034394;28;20037;-65
2022/08/05 08:38:15;;;;;;;8.90;6.47;;;;;;;;;;5044308;28;20029;-65
2022/08/05 08:40:41;;;;;;;13.48;6.80;;;;;;;;;;5047196;28;20353;-65
2022/08/05 08:43:11;;;;;;;14.48;6.78;;;;;;;;;;5044981;28;20124;-65
2022/08/05 08:45:37;;;;;;;9.52;5.95;;;;;;;;;;5049208;28;20492;-67
2022/08/05 08:48:05;;;;;;;12.07;6.15;;;;;;;;;;5033501;28;20038;-66
2022/08/05 08:50:32;;;;;;;9.98;6.18;;;;;;;;;;5034121;28;20033;-65
2022/08/05 08:53:04;;;;;;;11.95;6.40;;;;;;;;;;5034898;28;20447;-67
2022/08/05 08:55:30;;;;;;;11.35;6.15;;;;;;;;;;5032765;28;20087;-66
2022/08/05 08:57:58;;;;;;;11.57;5.75;;;;;;;;;;5033736;28;20517;-65
2022/08/05 09:00:24;;;;;;;12.85;5.88;;;;;;;;;;5050756;28;20041;-66
2022/08/05 09:02:51;;;;;;;9.10;5.90;;;;;;;;;;5053634;28;20029;-66
2022/08/05 09:05:16;;;;;;;14.05;6.85;;;;;;;;;;5042567;28;20112;-67
2022/08/05 09:07:42;;;;;;;12.93;6.60;;;;;;;;;;5015145;28;20120;-63
2022/08/05 09:10:08;;;;;;;12.10;6.32;;;;;;;;;;5046455;28;20367;-66
2022/08/05 09:12:34;;;;;;;11.60;6.40;;;;;;;;;;5050368;28;20093;-64
2022/08/05 09:15:04;;;;;;;11.57;6.38;;;;;;;;;;5035855;28;20112;-65
2022/08/05 09:17:30;;;;;;;11.13;6.50;;;;;;;;;;5032847;28;20025;-66
2022/08/05 09:19:57;;;;;;;10.93;6.22;;;;;;;;;;5033403;28;20033;-66
2022/08/05 09:22:22;;;;;;;10.73;5.80;;;;;;;;;;5032963;28;20069;-65
2022/08/05 09:25:01;;;;;;;9.80;5.10;;;;;;;;;;5047304;28;20125;-63
2022/08/05 09:27:33;;;;;;;9.88;6.35;;;;;;;;;;5048259;28;20033;-65
2022/08/05 09:29:58;;;;;;;12.45;6.30;;;;;;;;;;5050268;28;20028;-65
2022/08/05 09:32:36;;;;;;;11.77;6.20;;;;;;;;;;5052353;28;20381;-65
2022/08/05 09:35:14;;;;;;;9.70;5.90;;;;;;;;;;5049004;28;20048;-65
2022/08/05 09:37:53;;;;;;;10.18;5.97;;;;;;;;;;5052332;28;20033;-65
2022/08/05 09:40:36;;;;;;;10.15;5.80;;;;;;;;;;5051944;28;20029;-66
2022/08/05 09:43:05;;;;;;;11.50;6.03;;;;;;;;;;5051490;28;20033;-64
2022/08/05 09:45:36;;;;;;;8.30;5.32;;;;;;;;;;5036951;28;20036;-66
2022/08/05 09:48:17;;;;;;;;;;;;;;;;;;5046919;28;20437;-63
2022/08/05 09:50:47;;;;;;;;;;;;;;;;;;5014768;28;19912;-63
2022/08/05 09:53:12;;;;;;;9.35;4.80;;;;;;;;;;5033091;28;20313;-66
2022/08/05 09:55:37;;;;;;;9.13;5.38;;;;;;;;;;5052060;28;20035;-65
2022/08/05 09:58:11;;;;;;;10.63;4.50;;;;;;;;;;5051948;28;20049;-64
2022/08/05 10:00:36;;;;;;;7.95;4.78;;;;;;;;;;5051516;28;20108;-64
2022/08/05 10:03:09;;;;;;;11.02;5.43;;;;;;;;;;5048303;28;20055;-62
2022/08/05 10:05:35;;;;;;;12.15;5.32;;;;;;;;;;5051431;28;20473;-64
2022/08/05 10:08:03;;;;;;;9.77;5.18;;;;;;;;;;5051208;28;20029;-63
2022/08/05 10:10:37;;;;;;;9.75;5.20;;;;;;;;;;5051347;28;20029;-64
2022/08/05 10:13:04;;;;;;;10.98;5.30;;;;;;;;;;5045578;28;20021;-65
2022/08/05 10:15:34;;;;;;;8.60;4.97;;;;;;;;;;5051108;28;20028;-66
2022/08/05 10:18:11;;;;;;;7.93;4.68;;;;;;;;;;5051206;28;20033;-64
2022/08/05 10:20:52;;;;;;;9.95;4.65;;;;;;;;;;5051393;28;20438;-64
2022/08/05 10:23:20;;;;;;;7.55;4.40;;;;;;;;;;5049093;28;20039;-64
2022/08/05 10:25:45;;;;;;;7.78;4.22;;;;;;;;;;5051209;28;20114;-64
2022/08/05 10:28:11;;;;;;;7.15;4.20;;;;;;;;;;5048312;28;20052;-66
2022/08/05 10:30:37;;;;;;;8.63;4.30;;;;;;;;;;5050539;28;20060;-66
2022/08/05 10:33:04;;;;;;;7.93;3.72;;;;;;;;;;5050039;28;20079;-64
2022/08/05 10:35:34;;;;;;;7.82;4.00;;;;;;;;;;5033000;28;20037;-66
2022/08/05 10:38:00;;;;;;;7.70;3.90;;;;;;;;;;5050195;28;20060;-65
2022/08/05 10:40:42;;;;;;;7.28;3.55;;;;;;;;;;5040609;28;20044;-63
2022/08/05 10:43:25;;;;;;;6.32;3.67;;;;;;;;;;5032335;28;20114;-65
2022/08/05 10:46:04;;;;;;;6.35;3.55;;;;;;;;;;5029525;28;20117;-64
2022/08/05 10:48:38;;;;;;;4.65;3.10;;;;;;;;;;5037162;28;20036;-64
2022/08/05 10:51:14;;;;;;;5.47;2.50;;;;;;;;;;5043592;28;20025;-64
2022/08/05 10:53:42;;;;;;;4.47;2.58;;;;;;;;;;5050364;28;20132;-64
2022/08/05 10:56:10;;;;;;;5.28;2.53;;;;;;;;;;5043214;28;20056;-65
2022/08/05 10:59:06;;;;;;;4.97;2.65;;;;;;;;;;5049862;28;20060;-65
2022/08/05 11:01:34;;;;;;;3.88;2.60;;;;;;;;;;5049876;28;20041;-64
2022/08/05 11:04:11;;;;;;;5.20;2.45;;;;;;;;;;5026042;28;20224;-65
2022/08/05 11:06:56;;;;;;;4.75;2.40;;;;;;;;;;4995929;28;20452;-66
2022/08/05 11:09:23;;;;;;;5.38;2.50;;;;;;;;;;5036472;28;20057;-65
2022/08/05 11:11:50;;;;;;;5.55;2.10;;;;;;;;;;5050475;28;20033;-65
2022/08/05 11:14:26;;;;;;;5.05;2.58;;;;;;;;;;5044844;28;20033;-67
2022/08/05 11:17:24;;;;;;;3.88;2.35;;;;;;;;;;5038584;28;20029;-67
2022/08/05 11:19:52;;;;;;;4.20;2.17;;;;;;;;;;5037647;28;20972;-65
2022/08/05 11:22:36;;;;;;;4.80;2.28;;;;;;;;;;5039096;28;20037;-66
2022/08/05 11:25:29;;;;;;;4.32;2.05;;;;;;;;;;5031011;28;20031;-65
2022/08/05 11:28:10;;;;;;;3.42;2.10;;;;;;;;;;5049327;28;20065;-65
2022/08/05 11:31:02;;;;;;;4.75;2.10;;;;;;;;;;5030645;28;20037;-65
2022/08/05 11:33:45;;;;;;;4.80;2.20;;;;;;;;;;5030345;28;20079;-65
2022/08/05 11:36:12;;;;;;;3.25;2.25;;;;;;;;;;5049124;28;20106;-65
2022/08/05 11:38:38;;;;;;;7.78;2.90;;;;;;;;;;5048980;28;20036;-63
2022/08/05 11:41:06;;;;;;;5.18;2.88;;;;;;;;;;5031141;28;20041;-62
2022/08/05 11:43:32;;;;;;;6.13;2.85;;;;;;;;;;5030172;28;20040;-65
2022/08/05 11:45:59;;;;;;;5.35;2.67;;;;;;;;;;5049066;28;20029;-65
2022/08/05 11:48:25;;;;;;;6.32;2.78;;;;;;;;;;5051931;28;20485;-64
2022/08/05 11:50:51;;;;;;;5.95;2.92;;;;;;;;;;5039755;28;20029;-65
2022/08/05 11:53:18;;;;;;;5.95;3.17;;;;;;;;;;5054471;28;20434;-65
2022/08/05 11:55:57;;;;;;;5.93;3.00;;;;;;;;;;5035181;28;20026;-65
2022/08/05 11:58:30;;;;;;;4.17;2.93;;;;;;;;;;5015195;28;20045;-65
2022/08/05 12:01:07;;;;;;;7.63;3.33;;;;;;;;;;5018084;28;20398;-66
2022/08/05 12:03:54;;;;;;;4.80;2.90;;;;;;;;;;5013592;28;20045;-66
2022/08/05 12:06:25;;;;;;;4.53;3.20;;;;;;;;;;5018097;28;20044;-65
2022/08/05 12:08:53;;;;;;;6.25;3.50;;;;;;;;;;5025454;28;20025;-65
2022/08/05 12:11:21;;;;;;;5.65;3.13;;;;;;;;;;5034081;28;20386;-66
2022/08/05 12:14:01;;;;;;;5.40;3.22;;;;;;;;;;5011403;28;20045;-66
2022/08/05 12:16:33;;;;;;;5.25;3.60;;;;;;;;;;5014600;28;20033;-64
2022/08/05 12:18:58;;;;;;;5.72;3.40;;;;;;;;;;5021367;28;20421;-64
2022/08/05 12:21:29;;;;;;;5.40;3.05;;;;;;;;;;5031703;28;20038;-64
2022/08/05 12:24:08;;;;;;;5.82;3.15;;;;;;;;;;5026305;28;20037;-66
2022/08/05 12:26:42;;;;;;;5.55;3.10;;;;;;;;;;5013838;28;20121;-66
2022/08/05 12:29:20;;;;;;;4.47;3.00;;;;;;;;;;5014729;28;20030;-64
2022/08/05 12:31:54;;;;;;;7.72;2.70;;;;;;;;;;5012079;28;20394;-64
2022/08/05 12:34:31;;;;;;;4.60;2.70;;;;;;;;;;5013208;28;20479;-64
2022/08/05 12:36:59;;;;;;;5.28;2.67;;;;;;;;;;5019127;28;20069;-65
2022/08/05 12:39:26;;;;;;;4.07;2.47;;;;;;;;;;5032083;28;20501;-64
2022/08/05 12:41:57;;;;;;;6.03;3.00;;;;;;;;;;5013407;28;20228;-65
2022/08/05 12:44:22;;;;;;;5.90;3.00;;;;;;;;;;5014835;28;20143;-63
2022/08/05 12:46:52;;;;;;;6.30;3.10;;;;;;;;;;4995608;28;20049;-65
2022/08/05 12:49:19;;;;;;;5.00;3.47;;;;;;;;;;5013797;28;20105;-65
2022/08/05 12:51:47;;;;;;;5.32;3.17;;;;;;;;;;5023677;28;20120;-65
2022/08/05 12:54:27;;;;;;;7.55;3.00;;;;;;;;;;5020642;28;20407;-65
2022/08/05 12:56:56;;;;;;;6.97;3.40;;;;;;;;;;5021092;28;20050;-64
2022/08/05 12:59:24;;;;;;;3.88;2.97;;;;;;;;;;5050289;28;20074;-64
2022/08/05 13:02:02;;;;;;;5.90;3.60;;;;;;;;;;5052078;28;20122;-64
2022/08/05 13:04:34;;;;;;;5.57;3.38;;;;;;;;;;5034669;28;20045;-65
2022/08/05 13:07:02;;;;;;;5.43;3.00;;;;;;;;;;5033326;28;20049;-65
2022/08/05 13:09:28;;;;;;;4.20;2.88;;;;;;;;;;5050369;28;20068;-66
2022/08/05 13:12:05;;;;;;;5.93;3.25;;;;;;;;;;5046904;28;20029;-67
2022/08/05 13:14:48;;;;;;;7.32;2.70;;;;;;;;;;5033320;28;20057;-65
2022/08/05 13:17:22;;;;;;;4.20;2.40;;;;;;;;;;5038035;28;20162;-66
2022/08/05 13:20:07;;;;;;;5.10;2.50;;;;;;;;;;5033103;28;20386;-66
2022/08/05 13:22:36;;;;;;;3.75;1.90;;;;;;;;;;5045910;28;20041;-64
2022/08/05 13:25:07;;;;;;;3.78;1.80;;;;;;;;;;5052943;28;20040;-64
2022/08/05 13:27:39;;;;;;;3.90;2.20;;;;;;;;;;5040104;28;20391;-66
2022/08/05 13:30:07;;;;;;;4.18;1.95;;;;;;;;;;5015693;28;20029;-66
2022/08/05 13:32:33;;;;;;;3.78;1.90;;;;;;;;;;5043345;28;20043;-68
2022/08/05 13:34:58;;;;;;;2.80;1.95;;;;;;;;;;5052365;28;20036;-67
2022/08/05 13:37:24;;;;;;;5.97;2.28;;;;;;;;;;5029290;28;20022;-66
2022/08/05 13:39:53;;;;;;;4.95;2.30;;;;;;;;;;5032310;28;20459;-62
2022/08/05 13:42:20;;;;;;;5.70;2.33;;;;;;;;;;5043752;28;20109;-64
2022/08/05 13:44:46;;;;;;;4.15;2.30;;;;;;;;;;5041712;28;20056;-64
2022/08/05 13:47:13;;;;;;;4.40;2.10;;;;;;;;;;5044773;28;20075;-63
2022/08/05 13:49:38;;;;;;;3.75;2.30;;;;;;;;;;5045567;28;20110;-65
2022/08/05 13:52:10;;;;;;;3.45;1.80;;;;;;;;;;5042392;28;20458;-61
2022/08/05 13:54:36;;;;;;;3.13;1.70;;;;;;;;;;5041812;28;20032;-62
2022/08/05 13:57:01;;;;;;;3.67;1.50;;;;;;;;;;5052154;28;20484;-60
2022/08/05 13:59:27;;;;;;;4.03;1.70;;;;;;;;;;5052832;28;20409;-61
2022/08/05 14:01:53;;;;;;;4.07;2.00;;;;;;;;;;5033564;28;20029;-61
2022/08/05 14:07:02;;;;;;;4.53;1.90;;;;;;;;;;5032434;28;20087;-61
2022/08/05 14:09:28;;;;;;;5.05;2.10;;;;;;;;;;5032502;28;20029;-61
2022/08/05 14:11:53;;;;;;;4.53;1.67;;;;;;;;;;5030782;28;20548;-60
2022/08/05 14:14:19;;;;;;;4.13;1.63;;;;;;;;;;5032222;28;20036;-61
2022/08/05 14:16:44;;;;;;;5.20;1.75;;;;;;;;;;5031585;28;20034;-61
2022/08/05 14:19:09;;;;;;;3.25;1.75;;;;;;;;;;5034317;28;20444;-61
2022/08/05 14:21:35;;;;;;;3.00;1.30;;;;;;;;;;5031842;28;20030;-60
2022/08/05 14:24:00;;;;;;;2.50;1.30;;;;;;;;;;5031378;28;20589;-61
2022/08/05 14:26:26;;;;;;;2.50;1.40;;;;;;;;;;5032033;28;20025;-61
2022/08/05 14:28:51;;;;;;;2.67;1.60;;;;;;;;;;5031420;28;20052;-61
2022/08/05 14:31:16;;;;;;;4.93;1.58;;;;;;;;;;5032166;28;20462;-61
2022/08/05 14:33:42;;;;;;;4.22;1.30;;;;;;;;;;5041050;28;20120;-61
2022/08/05 14:36:07;;;;;;;2.03;1.20;;;;;;;;;;5046553;28;20029;-61
2022/08/05 14:38:33;;;;;;;3.10;1.30;;;;;;;;;;5048390;28;20474;-61
2022/08/05 14:40:58;;;;;;;3.60;1.67;;;;;;;;;;5049685;28;20020;-61
2022/08/05 14:43:24;;;;;;;2.78;1.20;;;;;;;;;;5048304;28;20129;-63
2022/08/05 14:45:49;;;;;;;3.33;1.20;;;;;;;;;;5038012;28;20037;-64
2022/08/05 14:48:14;;;;;;;1.48;1.10;;;;;;;;;;5036274;28;20024;-63
2022/08/05 14:50:40;;;;;;;3.80;1.15;;;;;;;;;;5046695;28;20469;-62